KMAF/MAF METAR and TAF weather

Enter ICAO airport designator
Station Type Date Time Source
KMAF METAR 2020/09/20 01:53 UTC NOAA

KMAF 200153Z 10006KT 7SM CLR 22/12 A3014 RMK AO2 SLP173 T02220117


Station Type Date Time Source
KMAF Decoded METAR 2020/09/20 01:53 UTC NOAA

MIDLAND INTERNATIONAL AIRPORT , TX, United States (KMAF) 31-56N 102-12W 872M
Sep 19, 2020 - 09:53 PM EDT / 2020.09.20 0153 UTC
Wind: from the E (100 degrees) at 7 MPH (6 KT):0
Visibility: 7 mile(s):0
Sky conditions: clear
Temperature: 72.0 F (22.2 C)
Dew Point: 53.1 F (11.7 C)
Relative Humidity: 51%
Pressure (altimeter): 30.14 in. Hg (1020 hPa)
ob: KMAF 200153Z 10006KT 7SM CLR 22/12 A3014 RMK AO2 SLP173 T02220117
cycle: 2

Station Type Date Time Source
KMAF TAF 2020/09/19 18:22 UTC NOAA

TAF KMAF 191720Z 1918/2018 11009KT P6SM SCT050

Example: see airport list